sensor_id;sensor_type;location;lat;lon;timestamp;pressure;altitude;pressure_sealevel;temperature;humidity
19096;BME280;9680;52.520;13.332;2023-07-20T00:01:37;100774.47;;;17.73;81.53
19096;BME280;9680;52.520;13.332;2023-07-20T00:04:04;100781.09;;;17.79;81.20
19096;BME280;9680;52.520;13.332;2023-07-20T00:06:31;100785.41;;;17.80;81.04
19096;BME280;9680;52.520;13.332;2023-07-20T00:08:59;100783.44;;;17.84;81.48
19096;BME280;9680;52.520;13.332;2023-07-20T00:11:26;100787.00;;;17.83;81.06
19096;BME280;9680;52.520;13.332;2023-07-20T00:13:53;100787.22;;;17.80;81.09
19096;BME280;9680;52.520;13.332;2023-07-20T00:16:20;100786.28;;;17.81;81.67
19096;BME280;9680;52.520;13.332;2023-07-20T00:18:47;100780.06;;;17.82;81.54
19096;BME280;9680;52.520;13.332;2023-07-20T00:21:13;100785.22;;;17.83;81.50
19096;BME280;9680;52.520;13.332;2023-07-20T00:23:40;100786.81;;;17.86;81.88
19096;BME280;9680;52.520;13.332;2023-07-20T00:26:08;100791.94;;;17.87;81.30
19096;BME280;9680;52.520;13.332;2023-07-20T00:28:35;100793.84;;;17.85;81.30
19096;BME280;9680;52.520;13.332;2023-07-20T00:31:03;100789.53;;;17.84;80.98
19096;BME280;9680;52.520;13.332;2023-07-20T00:33:30;100786.88;;;17.84;81.02
19096;BME280;9680;52.520;13.332;2023-07-20T00:35:58;100787.97;;;17.82;80.96
19096;BME280;9680;52.520;13.332;2023-07-20T00:38:25;100788.78;;;17.82;81.07
19096;BME280;9680;52.520;13.332;2023-07-20T00:40:51;100796.69;;;17.82;81.08
19096;BME280;9680;52.520;13.332;2023-07-20T00:43:20;100792.59;;;17.78;81.06
19096;BME280;9680;52.520;13.332;2023-07-20T00:45:46;100793.13;;;17.70;81.84
19096;BME280;9680;52.520;13.332;2023-07-20T00:48:14;100790.16;;;17.62;81.73
19096;BME280;9680;52.520;13.332;2023-07-20T00:50:42;100790.88;;;17.51;81.86
19096;BME280;9680;52.520;13.332;2023-07-20T00:53:09;100785.47;;;17.40;82.07
19096;BME280;9680;52.520;13.332;2023-07-20T00:55:36;100785.56;;;17.38;82.83
19096;BME280;9680;52.520;13.332;2023-07-20T00:58:03;100789.25;;;17.36;83.34
19096;BME280;9680;52.520;13.332;2023-07-20T01:00:32;100781.84;;;17.28;83.13
19096;BME280;9680;52.520;13.332;2023-07-20T01:02:58;100783.00;;;17.24;83.37
19096;BME280;9680;52.520;13.332;2023-07-20T01:05:33;100794.13;;;17.14;83.36
19096;BME280;9680;52.520;13.332;2023-07-20T01:08:07;100796.31;;;17.08;84.02
19096;BME280;9680;52.520;13.332;2023-07-20T01:10:41;100791.25;;;17.05;84.56
19096;BME280;9680;52.520;13.332;2023-07-20T01:13:13;100799.03;;;17.06;84.49
19096;BME280;9680;52.520;13.332;2023-07-20T01:15:42;100797.91;;;17.10;84.37
19096;BME280;9680;52.520;13.332;2023-07-20T01:18:08;100800.53;;;17.10;83.78
19096;BME280;9680;52.520;13.332;2023-07-20T01:20:36;100792.19;;;17.03;84.23
19096;BME280;9680;52.520;13.332;2023-07-20T01:23:22;100792.59;;;16.97;84.20
19096;BME280;9680;52.520;13.332;2023-07-20T01:26:16;100791.91;;;16.94;85.14
19096;BME280;9680;52.520;13.332;2023-07-20T01:29:01;100787.47;;;16.94;84.24
19096;BME280;9680;52.520;13.332;2023-07-20T01:31:37;100800.75;;;16.93;84.37
19096;BME280;9680;52.520;13.332;2023-07-20T01:34:05;100791.25;;;16.90;84.43
19096;BME280;9680;52.520;13.332;2023-07-20T01:36:36;100791.44;;;16.87;84.26
19096;BME280;9680;52.520;13.332;2023-07-20T01:39:04;100789.09;;;16.82;85.04
19096;BME280;9680;52.520;13.332;2023-07-20T01:41:32;100790.03;;;16.81;85.01
19096;BME280;9680;52.520;13.332;2023-07-20T01:43:59;100794.75;;;16.76;85.33
19096;BME280;9680;52.520;13.332;2023-07-20T01:46:27;100797.56;;;16.73;84.95
19096;BME280;9680;52.520;13.332;2023-07-20T01:48:55;100798.81;;;16.67;85.07
19096;BME280;9680;52.520;13.332;2023-07-20T01:51:22;100794.69;;;16.63;85.43
19096;BME280;9680;52.520;13.332;2023-07-20T01:53:49;100794.97;;;16.58;85.60
19096;BME280;9680;52.520;13.332;2023-07-20T01:56:16;100797.06;;;16.53;86.25
19096;BME280;9680;52.520;13.332;2023-07-20T01:58:43;100794.63;;;16.50;85.76
19096;BME280;9680;52.520;13.332;2023-07-20T02:01:10;100800.81;;;16.49;86.37
19096;BME280;9680;52.520;13.332;2023-07-20T02:03:36;100796.38;;;16.50;86.35
19096;BME280;9680;52.520;13.332;2023-07-20T02:06:05;100802.13;;;16.56;86.63
19096;BME280;9680;52.520;13.332;2023-07-20T02:08:31;100801.84;;;16.61;85.95
19096;BME280;9680;52.520;13.332;2023-07-20T02:10:58;100799.09;;;16.63;86.28
19096;BME280;9680;52.520;13.332;2023-07-20T02:13:25;100796.09;;;16.69;86.24
19096;BME280;9680;52.520;13.332;2023-07-20T02:15:51;100790.25;;;16.78;86.02
19096;BME280;9680;52.520;13.332;2023-07-20T02:18:20;100795.03;;;16.86;85.76
19096;BME280;9680;52.520;13.332;2023-07-20T02:20:47;100794.63;;;16.92;84.88
19096;BME280;9680;52.520;13.332;2023-07-20T02:23:15;100800.09;;;16.89;84.46
19096;BME280;9680;52.520;13.332;2023-07-20T02:25:42;100801.50;;;16.80;84.62
19096;BME280;9680;52.520;13.332;2023-07-20T02:28:12;100797.50;;;16.74;85.00
19096;BME280;9680;52.520;13.332;2023-07-20T02:30:39;100795.31;;;16.81;85.42
19096;BME280;9680;52.520;13.332;2023-07-20T02:33:06;100795.50;;;16.93;85.05
19096;BME280;9680;52.520;13.332;2023-07-20T02:35:33;100788.22;;;16.96;83.91
19096;BME280;9680;52.520;13.332;2023-07-20T02:38:00;100791.53;;;16.85;83.67
19096;BME280;9680;52.520;13.332;2023-07-20T02:40:28;100780.41;;;16.67;84.39
19096;BME280;9680;52.520;13.332;2023-07-20T02:42:55;100794.03;;;16.59;85.73
19096;BME280;9680;52.520;13.332;2023-07-20T02:45:22;100794.69;;;16.49;85.78
19096;BME280;9680;52.520;13.332;2023-07-20T02:47:50;100816.59;;;16.49;85.98
19096;BME280;9680;52.520;13.332;2023-07-20T02:50:17;100811.59;;;16.44;86.22
19096;BME280;9680;52.520;13.332;2023-07-20T02:52:44;100810.78;;;16.44;86.13
19096;BME280;9680;52.520;13.332;2023-07-20T02:55:11;100811.22;;;16.51;86.01
19096;BME280;9680;52.520;13.332;2023-07-20T02:57:39;100810.75;;;16.58;85.64
19096;BME280;9680;52.520;13.332;2023-07-20T03:00:07;100824.19;;;16.68;85.49
19096;BME280;9680;52.520;13.332;2023-07-20T03:02:34;100818.81;;;16.70;84.70
19096;BME280;9680;52.520;13.332;2023-07-20T03:05:01;100821.16;;;16.74;85.05
19096;BME280;9680;52.520;13.332;2023-07-20T03:07:31;100814.47;;;16.83;83.83
19096;BME280;9680;52.520;13.332;2023-07-20T03:09:58;100827.53;;;16.85;83.32
19096;BME280;9680;52.520;13.332;2023-07-20T03:12:25;100817.09;;;16.83;83.94
19096;BME280;9680;52.520;13.332;2023-07-20T03:14:54;100816.06;;;16.86;83.44
19096;BME280;9680;52.520;13.332;2023-07-20T03:17:22;100815.22;;;16.85;83.31
19096;BME280;9680;52.520;13.332;2023-07-20T03:19:50;100818.78;;;16.84;83.43
19096;BME280;9680;52.520;13.332;2023-07-20T03:22:16;100824.78;;;16.86;83.47
19096;BME280;9680;52.520;13.332;2023-07-20T03:24:43;100812.22;;;16.92;83.47
19096;BME280;9680;52.520;13.332;2023-07-20T03:27:10;100811.91;;;16.96;83.66
19096;BME280;9680;52.520;13.332;2023-07-20T03:29:37;100810.78;;;17.00;83.43
19096;BME280;9680;52.520;13.332;2023-07-20T03:32:07;100818.75;;;17.13;83.31
19096;BME280;9680;52.520;13.332;2023-07-20T03:34:33;100822.69;;;17.21;82.64
19096;BME280;9680;52.520;13.332;2023-07-20T03:37:00;100823.63;;;17.20;82.25
19096;BME280;9680;52.520;13.332;2023-07-20T03:39:29;100829.84;;;17.18;82.34
19096;BME280;9680;52.520;13.332;2023-07-20T03:41:57;100826.47;;;17.16;82.41
19096;BME280;9680;52.520;13.332;2023-07-20T03:44:24;100833.41;;;17.17;82.05
19096;BME280;9680;52.520;13.332;2023-07-20T03:46:51;100836.13;;;17.16;81.81
19096;BME280;9680;52.520;13.332;2023-07-20T03:49:19;100834.75;;;16.96;82.05
19096;BME280;9680;52.520;13.332;2023-07-20T03:51:46;100842.09;;;16.76;83.06
19096;BME280;9680;52.520;13.332;2023-07-20T03:54:12;100839.84;;;16.70;83.35
19096;BME280;9680;52.520;13.332;2023-07-20T03:56:39;100833.25;;;16.77;83.70
19096;BME280;9680;52.520;13.332;2023-07-20T03:59:06;100845.19;;;16.83;83.39
19096;BME280;9680;52.520;13.332;2023-07-20T04:01:32;100842.66;;;16.81;83.17
19096;BME280;9680;52.520;13.332;2023-07-20T04:04:04;100846.22;;;16.80;82.82
19096;BME280;9680;52.520;13.332;2023-07-20T04:06:33;100846.72;;;16.72;83.21
19096;BME280;9680;52.520;13.332;2023-07-20T04:08:59;100846.06;;;16.69;83.55
19096;BME280;9680;52.520;13.332;2023-07-20T04:11:26;100847.47;;;16.74;83.68
19096;BME280;9680;52.520;13.332;2023-07-20T04:13:53;100852.03;;;16.85;83.42
19096;BME280;9680;52.520;13.332;2023-07-20T04:16:21;100844.81;;;16.89;83.25
19096;BME280;9680;52.520;13.332;2023-07-20T04:18:48;100843.59;;;16.95;82.89
19096;BME280;9680;52.520;13.332;2023-07-20T04:21:15;100848.59;;;16.99;82.40
19096;BME280;9680;52.520;13.332;2023-07-20T04:23:43;100847.16;;;17.08;82.38
19096;BME280;9680;52.520;13.332;2023-07-20T04:26:11;100839.81;;;17.13;81.91
19096;BME280;9680;52.520;13.332;2023-07-20T04:28:38;100850.88;;;17.18;81.59
19096;BME280;9680;52.520;13.332;2023-07-20T04:31:12;100842.72;;;17.23;81.08
19096;BME280;9680;52.520;13.332;2023-07-20T04:33:39;100845.16;;;17.26;80.76
19096;BME280;9680;52.520;13.332;2023-07-20T04:36:08;100842.31;;;17.29;80.67
19096;BME280;9680;52.520;13.332;2023-07-20T04:38:35;100851.34;;;17.25;80.54
19096;BME280;9680;52.520;13.332;2023-07-20T04:41:12;100860.38;;;17.21;80.47
19096;BME280;9680;52.520;13.332;2023-07-20T04:43:44;100861.88;;;17.25;80.63
19096;BME280;9680;52.520;13.332;2023-07-20T04:46:13;100855.56;;;17.28;79.95
19096;BME280;9680;52.520;13.332;2023-07-20T04:48:42;100857.59;;;17.37;80.12
19096;BME280;9680;52.520;13.332;2023-07-20T04:51:09;100859.09;;;17.41;79.93
19096;BME280;9680;52.520;13.332;2023-07-20T04:53:36;100862.06;;;17.50;79.60
19096;BME280;9680;52.520;13.332;2023-07-20T04:56:03;100851.69;;;17.61;79.48
19096;BME280;9680;52.520;13.332;2023-07-20T04:58:32;100856.66;;;17.79;78.71
19096;BME280;9680;52.520;13.332;2023-07-20T05:00:58;100861.63;;;17.83;77.77
19096;BME280;9680;52.520;13.332;2023-07-20T05:03:25;100854.44;;;17.85;77.44
19096;BME280;9680;52.520;13.332;2023-07-20T05:05:52;100859.94;;;17.82;76.90
19096;BME280;9680;52.520;13.332;2023-07-20T05:08:19;100862.75;;;17.66;77.15
19096;BME280;9680;52.520;13.332;2023-07-20T05:10:48;100863.44;;;17.55;77.25
19096;BME280;9680;52.520;13.332;2023-07-20T05:13:15;100874.72;;;17.57;77.33
19096;BME280;9680;52.520;13.332;2023-07-20T05:15:43;100870.16;;;17.46;77.32
19096;BME280;9680;52.520;13.332;2023-07-20T05:18:14;100868.09;;;17.24;77.70
19096;BME280;9680;52.520;13.332;2023-07-20T05:20:45;100862.75;;;17.11;78.27
19096;BME280;9680;52.520;13.332;2023-07-20T05:23:12;100870.66;;;16.97;78.81
19096;BME280;9680;52.520;13.332;2023-07-20T05:25:39;100866.53;;;16.93;79.42
19096;BME280;9680;52.520;13.332;2023-07-20T05:28:06;100866.06;;;16.86;79.91
19096;BME280;9680;52.520;13.332;2023-07-20T05:30:32;100870.25;;;16.88;80.54
19096;BME280;9680;52.520;13.332;2023-07-20T05:33:01;100875.00;;;16.98;80.12
19096;BME280;9680;52.520;13.332;2023-07-20T05:35:28;100870.88;;;17.21;80.50
19096;BME280;9680;52.520;13.332;2023-07-20T05:37:54;100872.19;;;17.56;79.87
19096;BME280;9680;52.520;13.332;2023-07-20T05:40:21;100870.25;;;17.72;77.89
19096;BME280;9680;52.520;13.332;2023-07-20T05:42:48;100873.44;;;17.78;77.57
19096;BME280;9680;52.520;13.332;2023-07-20T05:45:17;100874.78;;;17.83;77.06
19096;BME280;9680;52.520;13.332;2023-07-20T05:47:44;100872.19;;;17.96;77.34
19096;BME280;9680;52.520;13.332;2023-07-20T05:50:12;100871.28;;;18.10;76.19
19096;BME280;9680;52.520;13.332;2023-07-20T05:52:39;100884.16;;;18.15;75.23
19096;BME280;9680;52.520;13.332;2023-07-20T05:55:07;100880.66;;;18.01;75.06
19096;BME280;9680;52.520;13.332;2023-07-20T05:57:34;100876.84;;;17.93;75.63
19096;BME280;9680;52.520;13.332;2023-07-20T06:00:06;100876.38;;;17.86;75.51
19096;BME280;9680;52.520;13.332;2023-07-20T06:02:41;100892.81;;;17.76;75.68
19096;BME280;9680;52.520;13.332;2023-07-20T06:05:08;100888.69;;;17.72;76.75
19096;BME280;9680;52.520;13.332;2023-07-20T06:07:37;100880.59;;;17.88;76.80
19096;BME280;9680;52.520;13.332;2023-07-20T06:10:05;100888.38;;;18.17;75.91
19096;BME280;9680;52.520;13.332;2023-07-20T06:12:32;100887.03;;;18.38;74.58
19096;BME280;9680;52.520;13.332;2023-07-20T06:15:02;100892.19;;;18.65;73.52
19096;BME280;9680;52.520;13.332;2023-07-20T06:17:29;100892.25;;;18.89;72.78
19096;BME280;9680;52.520;13.332;2023-07-20T06:19:56;100894.78;;;19.04;70.90
19096;BME280;9680;52.520;13.332;2023-07-20T06:22:22;100896.63;;;19.15;70.06
19096;BME280;9680;52.520;13.332;2023-07-20T06:24:50;100893.59;;;19.08;69.54
19096;BME280;9680;52.520;13.332;2023-07-20T06:27:17;100894.88;;;19.02;69.30
19096;BME280;9680;52.520;13.332;2023-07-20T06:29:44;100900.56;;;19.09;69.39
19096;BME280;9680;52.520;13.332;2023-07-20T06:32:11;100902.66;;;19.17;68.99
19096;BME280;9680;52.520;13.332;2023-07-20T06:34:39;100893.88;;;19.29;68.68
19096;BME280;9680;52.520;13.332;2023-07-20T06:37:05;100898.56;;;19.37;68.47
19096;BME280;9680;52.520;13.332;2023-07-20T06:39:32;100904.53;;;19.28;67.83
19096;BME280;9680;52.520;13.332;2023-07-20T06:42:00;100902.47;;;19.07;67.30
19096;BME280;9680;52.520;13.332;2023-07-20T06:44:27;100902.59;;;18.92;67.72
19096;BME280;9680;52.520;13.332;2023-07-20T06:46:54;100895.13;;;18.73;67.96
19096;BME280;9680;52.520;13.332;2023-07-20T06:49:24;100909.28;;;18.59;68.01
19096;BME280;9680;52.520;13.332;2023-07-20T06:51:51;100906.53;;;18.48;67.13
19096;BME280;9680;52.520;13.332;2023-07-20T06:54:18;100908.13;;;18.38;67.47
19096;BME280;9680;52.520;13.332;2023-07-20T06:56:45;100914.22;;;18.51;67.75
19096;BME280;9680;52.520;13.332;2023-07-20T06:59:13;100912.13;;;18.69;67.08
19096;BME280;9680;52.520;13.332;2023-07-20T07:01:40;100908.28;;;18.86;65.95
19096;BME280;9680;52.520;13.332;2023-07-20T07:04:06;100907.94;;;19.17;66.04
19096;BME280;9680;52.520;13.332;2023-07-20T07:06:33;100897.16;;;19.44;64.27
19096;BME280;9680;52.520;13.332;2023-07-20T07:09:00;100900.19;;;19.27;63.04
19096;BME280;9680;52.520;13.332;2023-07-20T07:11:27;100890.59;;;19.26;62.52
19096;BME280;9680;52.520;13.332;2023-07-20T07:13:54;100901.56;;;19.32;61.97
19096;BME280;9680;52.520;13.332;2023-07-20T07:16:22;100913.91;;;19.32;61.12
19096;BME280;9680;52.520;13.332;2023-07-20T07:18:50;100904.75;;;19.49;61.56
19096;BME280;9680;52.520;13.332;2023-07-20T07:21:17;100914.97;;;19.78;60.35
19096;BME280;9680;52.520;13.332;2023-07-20T07:23:45;100910.91;;;19.85;59.35
19096;BME280;9680;52.520;13.332;2023-07-20T07:26:12;100904.47;;;19.89;58.52
19096;BME280;9680;52.520;13.332;2023-07-20T07:28:38;100903.56;;;19.77;59.28
19096;BME280;9680;52.520;13.332;2023-07-20T07:31:06;100905.44;;;19.64;59.86
19096;BME280;9680;52.520;13.332;2023-07-20T07:34:12;100900.25;;;19.87;59.89
19096;BME280;9680;52.520;13.332;2023-07-20T07:36:39;100909.84;;;20.23;59.67
19096;BME280;9680;52.520;13.332;2023-07-20T07:39:08;100897.84;;;20.54;58.67
19096;BME280;9680;52.520;13.332;2023-07-20T07:41:39;100901.25;;;20.67;57.56
19096;BME280;9680;52.520;13.332;2023-07-20T07:44:13;100896.91;;;20.77;57.45
19096;BME280;9680;52.520;13.332;2023-07-20T07:46:40;100896.84;;;20.90;55.56
19096;BME280;9680;52.520;13.332;2023-07-20T07:49:07;100899.53;;;21.12;53.81
19096;BME280;9680;52.520;13.332;2023-07-20T07:51:35;100905.63;;;21.35;52.68
19096;BME280;9680;52.520;13.332;2023-07-20T07:54:01;100902.91;;;21.25;52.58
19096;BME280;9680;52.520;13.332;2023-07-20T07:56:28;100904.34;;;21.18;52.41
19096;BME280;9680;52.520;13.332;2023-07-20T07:58:55;100918.19;;;21.21;52.25
19096;BME280;9680;52.520;13.332;2023-07-20T08:01:21;100904.94;;;21.21;52.83
19096;BME280;9680;52.520;13.332;2023-07-20T08:03:48;100912.16;;;21.31;51.67
19096;BME280;9680;52.520;13.332;2023-07-20T08:06:15;100912.44;;;21.16;51.86
19096;BME280;9680;52.520;13.332;2023-07-20T08:08:43;100916.88;;;21.04;52.61
19096;BME280;9680;52.520;13.332;2023-07-20T08:11:10;100904.00;;;21.11;52.74
19096;BME280;9680;52.520;13.332;2023-07-20T08:13:36;100916.97;;;21.26;53.04
19096;BME280;9680;52.520;13.332;2023-07-20T08:16:03;100909.03;;;21.26;52.77
19096;BME280;9680;52.520;13.332;2023-07-20T08:18:30;100916.34;;;21.45;53.08
19096;BME280;9680;52.520;13.332;2023-07-20T08:20:57;100916.66;;;21.63;52.47
19096;BME280;9680;52.520;13.332;2023-07-20T08:23:24;100922.25;;;21.81;51.34
19096;BME280;9680;52.520;13.332;2023-07-20T08:25:52;100933.97;;;21.78;50.68
19096;BME280;9680;52.520;13.332;2023-07-20T08:28:19;100925.91;;;21.68;51.02
19096;BME280;9680;52.520;13.332;2023-07-20T08:30:47;100935.31;;;21.61;51.70
19096;BME280;9680;52.520;13.332;2023-07-20T08:33:17;100928.97;;;21.64;51.96
19096;BME280;9680;52.520;13.332;2023-07-20T08:35:45;100928.19;;;21.73;51.71
19096;BME280;9680;52.520;13.332;2023-07-20T08:38:11;100925.03;;;21.79;51.61
19096;BME280;9680;52.520;13.332;2023-07-20T08:40:40;100919.56;;;21.60;51.09
19096;BME280;9680;52.520;13.332;2023-07-20T08:43:08;100926.06;;;21.67;51.78
19096;BME280;9680;52.520;13.332;2023-07-20T08:45:38;100929.16;;;21.72;50.85
19096;BME280;9680;52.520;13.332;2023-07-20T08:48:06;100927.53;;;21.37;51.12
19096;BME280;9680;52.520;13.332;2023-07-20T08:50:34;100925.91;;;21.13;50.25
19096;BME280;9680;52.520;13.332;2023-07-20T08:53:01;100930.38;;;21.01;50.95
19096;BME280;9680;52.520;13.332;2023-07-20T08:55:29;100933.84;;;21.24;51.06
19096;BME280;9680;52.520;13.332;2023-07-20T08:57:58;100923.06;;;21.49;50.28
19096;BME280;9680;52.520;13.332;2023-07-20T09:00:26;100928.81;;;21.65;49.70
19096;BME280;9680;52.520;13.332;2023-07-20T09:02:54;100928.81;;;21.54;48.74
19096;BME280;9680;52.520;13.332;2023-07-20T09:05:23;100914.81;;;21.75;49.22
19096;BME280;9680;52.520;13.332;2023-07-20T09:07:51;100926.09;;;21.88;48.44
19096;BME280;9680;52.520;13.332;2023-07-20T09:10:18;100930.81;;;22.06;49.05
19096;BME280;9680;52.520;13.332;2023-07-20T09:12:44;100920.13;;;22.38;49.21
19096;BME280;9680;52.520;13.332;2023-07-20T09:15:11;100921.75;;;22.82;48.32
19096;BME280;9680;52.520;13.332;2023-07-20T09:17:45;100917.09;;;23.15;47.67
19096;BME280;9680;52.520;13.332;2023-07-20T09:20:14;100915.75;;;23.31;47.20
19096;BME280;9680;52.520;13.332;2023-07-20T09:22:41;100917.63;;;23.60;46.32
19096;BME280;9680;52.520;13.332;2023-07-20T09:25:11;100907.78;;;24.09;45.43
19096;BME280;9680;52.520;13.332;2023-07-20T09:27:39;100904.69;;;24.24;44.38
19096;BME280;9680;52.520;13.332;2023-07-20T09:30:06;100915.00;;;24.37;44.73
19096;BME280;9680;52.520;13.332;2023-07-20T09:32:40;100916.19;;;24.14;43.20
19096;BME280;9680;52.520;13.332;2023-07-20T09:35:13;100914.78;;;23.51;44.50
19096;BME280;9680;52.520;13.332;2023-07-20T09:37:40;100923.91;;;22.98;45.61
19096;BME280;9680;52.520;13.332;2023-07-20T09:40:07;100926.22;;;22.50;46.94
19096;BME280;9680;52.520;13.332;2023-07-20T09:42:36;100928.34;;;22.14;47.54
19096;BME280;9680;52.520;13.332;2023-07-20T09:45:07;100936.97;;;21.74;48.44
19096;BME280;9680;52.520;13.332;2023-07-20T09:47:35;100939.31;;;21.44;49.34
19096;BME280;9680;52.520;13.332;2023-07-20T09:50:05;100938.31;;;21.13;49.74
19096;BME280;9680;52.520;13.332;2023-07-20T09:52:37;100940.38;;;20.98;50.65
19096;BME280;9680;52.520;13.332;2023-07-20T09:55:05;100953.31;;;20.66;53.06
19096;BME280;9680;52.520;13.332;2023-07-20T09:57:33;100951.97;;;20.38;54.41
19096;BME280;9680;52.520;13.332;2023-07-20T10:00:00;100952.81;;;20.27;55.34
19096;BME280;9680;52.520;13.332;2023-07-20T10:02:33;100962.53;;;20.27;55.99
19096;BME280;9680;52.520;13.332;2023-07-20T10:05:03;100973.34;;;20.35;55.91
19096;BME280;9680;52.520;13.332;2023-07-20T10:07:30;100965.53;;;20.22;56.22
19096;BME280;9680;52.520;13.332;2023-07-20T10:10:01;100958.31;;;20.24;56.30
19096;BME280;9680;52.520;13.332;2023-07-20T10:12:30;100965.53;;;20.22;56.05
19096;BME280;9680;52.520;13.332;2023-07-20T10:15:03;100967.09;;;20.25;55.51
19096;BME280;9680;52.520;13.332;2023-07-20T10:17:37;100963.09;;;20.19;55.30
19096;BME280;9680;52.520;13.332;2023-07-20T10:20:10;100964.50;;;20.12;55.59
19096;BME280;9680;52.520;13.332;2023-07-20T10:22:38;100965.63;;;20.20;54.99
19096;BME280;9680;52.520;13.332;2023-07-20T10:25:06;100966.28;;;20.35;55.36
19096;BME280;9680;52.520;13.332;2023-07-20T10:27:34;100950.81;;;20.76;54.79
19096;BME280;9680;52.520;13.332;2023-07-20T10:30:00;100952.88;;;21.18;54.23
19096;BME280;9680;52.520;13.332;2023-07-20T10:32:29;100956.66;;;21.60;53.17
19096;BME280;9680;52.520;13.332;2023-07-20T10:34:56;100953.94;;;21.82;51.70
19096;BME280;9680;52.520;13.332;2023-07-20T10:37:50;100950.56;;;21.80;51.27
19096;BME280;9680;52.520;13.332;2023-07-20T10:40:28;100949.19;;;21.98;51.08
19096;BME280;9680;52.520;13.332;2023-07-20T10:43:00;100956.03;;;22.00;50.12
19096;BME280;9680;52.520;13.332;2023-07-20T10:45:36;100950.47;;;22.03;49.93
19096;BME280;9680;52.520;13.332;2023-07-20T10:48:09;100955.97;;;22.11;49.70
19096;BME280;9680;52.520;13.332;2023-07-20T10:50:40;100942.16;;;22.29;49.17
19096;BME280;9680;52.520;13.332;2023-07-20T10:53:15;100941.75;;;22.34;49.25
19096;BME280;9680;52.520;13.332;2023-07-20T10:55:43;100951.22;;;22.48;48.97
19096;BME280;9680;52.520;13.332;2023-07-20T10:58:12;100945.13;;;22.57;49.16
19096;BME280;9680;52.520;13.332;2023-07-20T11:00:56;100949.47;;;22.89;48.75
19096;BME280;9680;52.520;13.332;2023-07-20T11:03:29;100946.28;;;22.95;48.06
19096;BME280;9680;52.520;13.332;2023-07-20T11:05:57;100951.88;;;23.02;47.83
19096;BME280;9680;52.520;13.332;2023-07-20T11:08:39;100948.41;;;23.11;47.78
19096;BME280;9680;52.520;13.332;2023-07-20T11:11:24;100947.16;;;23.16;47.43
19096;BME280;9680;52.520;13.332;2023-07-20T11:13:55;100949.66;;;23.07;47.70
19096;BME280;9680;52.520;13.332;2023-07-20T11:16:33;100950.22;;;22.70;47.01
19096;BME280;9680;52.520;13.332;2023-07-20T11:19:01;100948.78;;;22.45;47.89
19096;BME280;9680;52.520;13.332;2023-07-20T11:21:28;100951.06;;;22.28;48.62
19096;BME280;9680;52.520;13.332;2023-07-20T11:23:57;100946.78;;;22.16;49.83
19096;BME280;9680;52.520;13.332;2023-07-20T11:26:23;100949.75;;;22.01;49.66
19096;BME280;9680;52.520;13.332;2023-07-20T11:28:50;100945.25;;;22.13;50.28
19096;BME280;9680;52.520;13.332;2023-07-20T11:31:17;100947.72;;;22.47;50.46
19096;BME280;9680;52.520;13.332;2023-07-20T11:33:44;100949.94;;;22.73;50.33
19096;BME280;9680;52.520;13.332;2023-07-20T11:36:12;100946.00;;;22.98;49.50
19096;BME280;9680;52.520;13.332;2023-07-20T11:38:41;100948.44;;;23.21;48.67
19096;BME280;9680;52.520;13.332;2023-07-20T11:41:10;100950.31;;;23.50;47.96
19096;BME280;9680;52.520;13.332;2023-07-20T11:43:39;100930.47;;;23.94;47.61
19096;BME280;9680;52.520;13.332;2023-07-20T11:46:07;100933.16;;;24.61;46.90
19096;BME280;9680;52.520;13.332;2023-07-20T11:48:34;100927.69;;;25.00;44.23
19096;BME280;9680;52.520;13.332;2023-07-20T11:51:01;100925.41;;;25.06;43.99
19096;BME280;9680;52.520;13.332;2023-07-20T11:53:28;100926.78;;;24.82;44.24
19096;BME280;9680;52.520;13.332;2023-07-20T11:55:55;100930.38;;;24.53;44.76
19096;BME280;9680;52.520;13.332;2023-07-20T11:58:24;100934.84;;;24.05;44.62
19096;BME280;9680;52.520;13.332;2023-07-20T12:00:51;100933.69;;;23.58;45.85
19096;BME280;9680;52.520;13.332;2023-07-20T12:03:18;100949.13;;;23.23;45.95
19096;BME280;9680;52.520;13.332;2023-07-20T12:05:46;100949.19;;;22.61;46.04
19096;BME280;9680;52.520;13.332;2023-07-20T12:08:15;100957.41;;;22.16;47.09
19096;BME280;9680;52.520;13.332;2023-07-20T12:10:43;100965.31;;;21.73;47.92
19096;BME280;9680;52.520;13.332;2023-07-20T12:13:10;100967.41;;;21.47;48.74
19096;BME280;9680;52.520;13.332;2023-07-20T12:15:46;100963.75;;;21.59;48.95
19096;BME280;9680;52.520;13.332;2023-07-20T12:18:14;100965.53;;;21.81;48.27
19096;BME280;9680;52.520;13.332;2023-07-20T12:20:41;100959.53;;;22.01;47.81
19096;BME280;9680;52.520;13.332;2023-07-20T12:23:12;100957.66;;;22.13;47.62
19096;BME280;9680;52.520;13.332;2023-07-20T12:25:44;100953.50;;;22.20;47.78
19096;BME280;9680;52.520;13.332;2023-07-20T12:28:13;100950.28;;;22.37;48.10
19096;BME280;9680;52.520;13.332;2023-07-20T12:30:42;100952.16;;;22.68;47.67
19096;BME280;9680;52.520;13.332;2023-07-20T12:33:11;100943.63;;;23.05;46.33
19096;BME280;9680;52.520;13.332;2023-07-20T12:35:41;100953.44;;;23.05;44.82
19096;BME280;9680;52.520;13.332;2023-07-20T12:38:08;100945.97;;;23.30;44.30
19096;BME280;9680;52.520;13.332;2023-07-20T12:40:35;100941.72;;;23.17;44.94
19096;BME280;9680;52.520;13.332;2023-07-20T12:43:02;100948.53;;;23.10;44.86
19096;BME280;9680;52.520;13.332;2023-07-20T12:45:29;100949.28;;;22.81;45.16
19096;BME280;9680;52.520;13.332;2023-07-20T12:47:56;100948.41;;;22.49;45.88
19096;BME280;9680;52.520;13.332;2023-07-20T12:50:24;100943.25;;;22.48;45.49
19096;BME280;9680;52.520;13.332;2023-07-20T12:52:51;100948.03;;;22.54;43.71
19096;BME280;9680;52.520;13.332;2023-07-20T12:55:17;100943.38;;;22.46;42.71
19096;BME280;9680;52.520;13.332;2023-07-20T12:57:46;100936.38;;;22.45;41.60